Terminal Aerodrome Forecast
Issued by NWS

Home | Current Version | Previous Version | Text Only | Print | Product List | Glossary On
Versions: 1 2 3 4 5 6 7 8 9 10 11 12 13 14 15 16 17 18 19 20 21 22 23 24 25 26 27 28
000
FTUS41 KBOX 271133
TAFBED
TAF
KBED 271133Z 2712/2812 20008KT P6SM BKN200
     FM271700 21012G21KT P6SM SCT070
     FM272200 21014G25KT P6SM BKN080
     FM280300 21011KT P6SM BKN015
     FM280600 21009KT 6SM BR BKN010=

USA.gov is the U.S. government's official web portal to all federal, state and local government web resources and services.